sensor_id;sensor_type;location;lat;lon;timestamp;P1;durP1;ratioP1;P2;durP2;ratioP2
37855;SDS011;23694;43.274;26.924;2023-06-14T00:00:52;7.70;;;3.93;;
37855;SDS011;23694;43.274;26.924;2023-06-14T00:03:19;6.23;;;4.10;;
37855;SDS011;23694;43.274;26.924;2023-06-14T00:05:47;5.43;;;4.10;;
37855;SDS011;23694;43.274;26.924;2023-06-14T00:08:14;5.10;;;3.83;;
37855;SDS011;23694;43.274;26.924;2023-06-14T00:10:40;4.97;;;4.07;;
37855;SDS011;23694;43.274;26.924;2023-06-14T00:13:08;4.20;;;3.80;;
37855;SDS011;23694;43.274;26.924;2023-06-14T00:15:35;4.50;;;4.00;;
37855;SDS011;23694;43.274;26.924;2023-06-14T00:18:01;5.43;;;3.90;;
37855;SDS011;23694;43.274;26.924;2023-06-14T00:20:29;5.30;;;3.87;;
37855;SDS011;23694;43.274;26.924;2023-06-14T00:22:58;8.03;;;3.97;;
37855;SDS011;23694;43.274;26.924;2023-06-14T00:25:25;5.97;;;3.80;;
37855;SDS011;23694;43.274;26.924;2023-06-14T00:27:52;4.50;;;4.10;;
37855;SDS011;23694;43.274;26.924;2023-06-14T00:30:18;7.67;;;4.00;;
37855;SDS011;23694;43.274;26.924;2023-06-14T00:32:45;4.17;;;3.60;;
37855;SDS011;23694;43.274;26.924;2023-06-14T00:35:12;7.70;;;4.10;;
37855;SDS011;23694;43.274;26.924;2023-06-14T00:37:39;6.17;;;3.97;;
37855;SDS011;23694;43.274;26.924;2023-06-14T00:40:06;6.40;;;4.13;;
37855;SDS011;23694;43.274;26.924;2023-06-14T00:42:32;6.07;;;4.70;;
37855;SDS011;23694;43.274;26.924;2023-06-14T00:44:59;6.97;;;4.93;;
37855;SDS011;23694;43.274;26.924;2023-06-14T00:47:26;9.47;;;6.83;;
37855;SDS011;23694;43.274;26.924;2023-06-14T00:49:55;11.73;;;7.67;;
37855;SDS011;23694;43.274;26.924;2023-06-14T00:52:22;9.43;;;6.87;;
37855;SDS011;23694;43.274;26.924;2023-06-14T00:54:49;9.50;;;6.37;;
37855;SDS011;23694;43.274;26.924;2023-06-14T00:57:16;8.20;;;6.33;;
37855;SDS011;23694;43.274;26.924;2023-06-14T00:59:43;6.43;;;5.37;;
37855;SDS011;23694;43.274;26.924;2023-06-14T01:02:11;7.87;;;5.30;;
37855;SDS011;23694;43.274;26.924;2023-06-14T01:04:40;5.63;;;5.03;;
37855;SDS011;23694;43.274;26.924;2023-06-14T01:09:58;5.00;;;4.37;;
37855;SDS011;23694;43.274;26.924;2023-06-14T01:15:30;4.53;;;4.03;;
37855;SDS011;23694;43.274;26.924;2023-06-14T01:17:57;9.97;;;4.70;;
37855;SDS011;23694;43.274;26.924;2023-06-14T01:20:32;6.50;;;4.47;;
37855;SDS011;23694;43.274;26.924;2023-06-14T01:23:02;6.87;;;4.10;;
37855;SDS011;23694;43.274;26.924;2023-06-14T01:25:28;5.53;;;4.37;;
37855;SDS011;23694;43.274;26.924;2023-06-14T01:28:03;5.33;;;4.20;;
37855;SDS011;23694;43.274;26.924;2023-06-14T01:30:36;5.20;;;4.45;;
37855;SDS011;23694;43.274;26.924;2023-06-14T01:33:03;7.47;;;4.23;;
37855;SDS011;23694;43.274;26.924;2023-06-14T01:35:31;5.33;;;4.63;;
37855;SDS011;23694;43.274;26.924;2023-06-14T01:37:57;5.90;;;4.60;;
37855;SDS011;23694;43.274;26.924;2023-06-14T01:40:25;7.23;;;4.87;;
37855;SDS011;23694;43.274;26.924;2023-06-14T01:42:53;5.37;;;4.40;;
37855;SDS011;23694;43.274;26.924;2023-06-14T01:45:19;6.10;;;5.30;;
37855;SDS011;23694;43.274;26.924;2023-06-14T01:47:47;6.63;;;5.00;;
37855;SDS011;23694;43.274;26.924;2023-06-14T01:50:14;6.90;;;5.47;;
37855;SDS011;23694;43.274;26.924;2023-06-14T01:52:40;6.37;;;5.40;;
37855;SDS011;23694;43.274;26.924;2023-06-14T01:55:06;7.20;;;5.33;;
37855;SDS011;23694;43.274;26.924;2023-06-14T01:57:33;6.33;;;5.27;;
37855;SDS011;23694;43.274;26.924;2023-06-14T01:59:59;5.20;;;4.80;;
37855;SDS011;23694;43.274;26.924;2023-06-14T02:02:25;5.70;;;5.03;;
37855;SDS011;23694;43.274;26.924;2023-06-14T02:04:51;5.93;;;5.30;;
37855;SDS011;23694;43.274;26.924;2023-06-14T02:07:17;6.67;;;5.97;;
37855;SDS011;23694;43.274;26.924;2023-06-14T02:09:43;6.73;;;5.37;;
37855;SDS011;23694;43.274;26.924;2023-06-14T02:12:09;6.10;;;5.50;;
37855;SDS011;23694;43.274;26.924;2023-06-14T02:14:36;6.80;;;6.00;;
37855;SDS011;23694;43.274;26.924;2023-06-14T02:17:03;7.10;;;5.87;;
37855;SDS011;23694;43.274;26.924;2023-06-14T02:19:30;10.40;;;5.83;;
37855;SDS011;23694;43.274;26.924;2023-06-14T02:21:56;8.77;;;5.70;;
37855;SDS011;23694;43.274;26.924;2023-06-14T02:24:22;8.43;;;6.53;;
37855;SDS011;23694;43.274;26.924;2023-06-14T02:26:49;6.10;;;5.50;;
37855;SDS011;23694;43.274;26.924;2023-06-14T02:29:16;10.00;;;6.93;;
37855;SDS011;23694;43.274;26.924;2023-06-14T02:31:42;7.67;;;6.00;;
37855;SDS011;23694;43.274;26.924;2023-06-14T02:34:08;8.83;;;7.07;;
37855;SDS011;23694;43.274;26.924;2023-06-14T02:36:34;7.67;;;6.30;;
37855;SDS011;23694;43.274;26.924;2023-06-14T02:39:00;6.87;;;6.17;;
37855;SDS011;23694;43.274;26.924;2023-06-14T02:41:26;10.63;;;6.90;;
37855;SDS011;23694;43.274;26.924;2023-06-14T02:43:53;7.83;;;6.20;;
37855;SDS011;23694;43.274;26.924;2023-06-14T02:46:19;8.17;;;5.97;;
37855;SDS011;23694;43.274;26.924;2023-06-14T02:48:45;7.40;;;6.17;;
37855;SDS011;23694;43.274;26.924;2023-06-14T02:51:11;7.40;;;5.93;;
37855;SDS011;23694;43.274;26.924;2023-06-14T02:53:38;6.97;;;6.17;;
37855;SDS011;23694;43.274;26.924;2023-06-14T02:56:04;6.30;;;5.57;;
37855;SDS011;23694;43.274;26.924;2023-06-14T02:58:30;6.97;;;5.77;;
37855;SDS011;23694;43.274;26.924;2023-06-14T03:00:56;7.70;;;5.70;;
37855;SDS011;23694;43.274;26.924;2023-06-14T03:03:22;5.83;;;5.23;;
37855;SDS011;23694;43.274;26.924;2023-06-14T03:05:50;6.37;;;5.40;;
37855;SDS011;23694;43.274;26.924;2023-06-14T03:08:17;6.30;;;5.20;;
37855;SDS011;23694;43.274;26.924;2023-06-14T03:10:47;7.60;;;4.87;;
37855;SDS011;23694;43.274;26.924;2023-06-14T03:13:14;7.30;;;5.40;;
37855;SDS011;23694;43.274;26.924;2023-06-14T03:15:41;9.80;;;5.73;;
37855;SDS011;23694;43.274;26.924;2023-06-14T03:18:09;5.17;;;4.67;;
37855;SDS011;23694;43.274;26.924;2023-06-14T03:20:35;6.70;;;5.60;;
37855;SDS011;23694;43.274;26.924;2023-06-14T03:23:02;8.63;;;5.33;;
37855;SDS011;23694;43.274;26.924;2023-06-14T03:25:29;6.80;;;5.70;;
37855;SDS011;23694;43.274;26.924;2023-06-14T03:27:55;6.93;;;5.40;;
37855;SDS011;23694;43.274;26.924;2023-06-14T03:30:21;9.80;;;4.97;;
37855;SDS011;23694;43.274;26.924;2023-06-14T03:32:47;7.87;;;5.50;;
37855;SDS011;23694;43.274;26.924;2023-06-14T03:35:14;5.97;;;4.90;;
37855;SDS011;23694;43.274;26.924;2023-06-14T03:37:46;7.20;;;5.67;;
37855;SDS011;23694;43.274;26.924;2023-06-14T03:40:13;5.57;;;4.70;;
37855;SDS011;23694;43.274;26.924;2023-06-14T03:42:41;7.03;;;4.83;;
37855;SDS011;23694;43.274;26.924;2023-06-14T03:45:07;8.33;;;4.70;;
37855;SDS011;23694;43.274;26.924;2023-06-14T03:47:34;6.23;;;4.87;;
37855;SDS011;23694;43.274;26.924;2023-06-14T03:50:01;6.95;;;4.78;;
37855;SDS011;23694;43.274;26.924;2023-06-14T03:52:29;7.35;;;5.22;;
37855;SDS011;23694;43.274;26.924;2023-06-14T03:54:55;9.38;;;5.18;;
37855;SDS011;23694;43.274;26.924;2023-06-14T03:57:21;7.50;;;5.20;;
37855;SDS011;23694;43.274;26.924;2023-06-14T03:59:47;9.25;;;5.35;;
37855;SDS011;23694;43.274;26.924;2023-06-14T04:02:14;6.50;;;4.60;;
37855;SDS011;23694;43.274;26.924;2023-06-14T04:04:43;7.85;;;5.00;;
37855;SDS011;23694;43.274;26.924;2023-06-14T04:07:11;7.45;;;5.10;;
37855;SDS011;23694;43.274;26.924;2023-06-14T04:09:38;9.65;;;5.15;;
37855;SDS011;23694;43.274;26.924;2023-06-14T04:12:05;7.95;;;5.10;;
37855;SDS011;23694;43.274;26.924;2023-06-14T04:14:32;8.10;;;7.30;;
37855;SDS011;23694;43.274;26.924;2023-06-14T04:16:58;9.43;;;7.05;;
37855;SDS011;23694;43.274;26.924;2023-06-14T04:19:24;12.52;;;10.18;;
37855;SDS011;23694;43.274;26.924;2023-06-14T04:21:50;10.45;;;6.25;;
37855;SDS011;23694;43.274;26.924;2023-06-14T04:24:17;28.58;;;21.38;;
37855;SDS011;23694;43.274;26.924;2023-06-14T04:26:43;10.80;;;9.20;;
37855;SDS011;23694;43.274;26.924;2023-06-14T04:29:10;11.27;;;8.40;;
37855;SDS011;23694;43.274;26.924;2023-06-14T04:31:40;8.88;;;6.45;;
37855;SDS011;23694;43.274;26.924;2023-06-14T04:34:06;10.35;;;5.50;;
37855;SDS011;23694;43.274;26.924;2023-06-14T04:36:33;10.23;;;6.20;;
37855;SDS011;23694;43.274;26.924;2023-06-14T04:39:07;8.57;;;5.20;;
37855;SDS011;23694;43.274;26.924;2023-06-14T04:41:33;28.08;;;23.52;;
37855;SDS011;23694;43.274;26.924;2023-06-14T04:44:01;16.50;;;12.40;;
37855;SDS011;23694;43.274;26.924;2023-06-14T04:46:28;16.08;;;14.00;;
37855;SDS011;23694;43.274;26.924;2023-06-14T04:48:54;9.20;;;5.90;;
37855;SDS011;23694;43.274;26.924;2023-06-14T04:51:20;6.72;;;4.93;;
37855;SDS011;23694;43.274;26.924;2023-06-14T04:53:48;6.38;;;4.70;;
37855;SDS011;23694;43.274;26.924;2023-06-14T04:56:22;5.05;;;4.55;;
37855;SDS011;23694;43.274;26.924;2023-06-14T04:58:50;8.90;;;5.57;;
37855;SDS011;23694;43.274;26.924;2023-06-14T05:01:17;6.88;;;4.35;;
37855;SDS011;23694;43.274;26.924;2023-06-14T05:03:43;7.28;;;4.55;;
37855;SDS011;23694;43.274;26.924;2023-06-14T05:06:10;6.00;;;4.43;;
37855;SDS011;23694;43.274;26.924;2023-06-14T05:08:37;7.25;;;4.80;;
37855;SDS011;23694;43.274;26.924;2023-06-14T05:11:03;7.78;;;4.35;;
37855;SDS011;23694;43.274;26.924;2023-06-14T05:13:29;8.60;;;4.63;;
37855;SDS011;23694;43.274;26.924;2023-06-14T05:15:58;5.97;;;4.75;;
37855;SDS011;23694;43.274;26.924;2023-06-14T05:18:24;8.13;;;4.65;;
37855;SDS011;23694;43.274;26.924;2023-06-14T05:20:53;6.25;;;4.15;;
37855;SDS011;23694;43.274;26.924;2023-06-14T05:23:19;10.63;;;5.28;;
37855;SDS011;23694;43.274;26.924;2023-06-14T05:25:45;7.50;;;4.57;;
37855;SDS011;23694;43.274;26.924;2023-06-14T05:28:12;10.40;;;5.00;;
37855;SDS011;23694;43.274;26.924;2023-06-14T05:30:38;6.82;;;4.68;;
37855;SDS011;23694;43.274;26.924;2023-06-14T05:33:05;7.30;;;4.82;;
37855;SDS011;23694;43.274;26.924;2023-06-14T05:35:31;5.47;;;4.97;;
37855;SDS011;23694;43.274;26.924;2023-06-14T05:37:57;7.13;;;5.07;;
37855;SDS011;23694;43.274;26.924;2023-06-14T05:40:23;11.93;;;5.38;;
37855;SDS011;23694;43.274;26.924;2023-06-14T05:42:49;7.28;;;5.40;;
37855;SDS011;23694;43.274;26.924;2023-06-14T05:45:16;6.75;;;4.60;;
37855;SDS011;23694;43.274;26.924;2023-06-14T05:47:42;5.88;;;4.72;;
37855;SDS011;23694;43.274;26.924;2023-06-14T05:50:08;5.03;;;4.50;;
37855;SDS011;23694;43.274;26.924;2023-06-14T05:52:34;8.38;;;4.85;;
37855;SDS011;23694;43.274;26.924;2023-06-14T05:55:02;17.95;;;5.25;;
37855;SDS011;23694;43.274;26.924;2023-06-14T05:57:29;11.77;;;4.60;;
37855;SDS011;23694;43.274;26.924;2023-06-14T05:59:55;7.43;;;5.00;;
37855;SDS011;23694;43.274;26.924;2023-06-14T06:02:21;11.00;;;4.78;;
37855;SDS011;23694;43.274;26.924;2023-06-14T06:04:49;5.80;;;5.03;;
37855;SDS011;23694;43.274;26.924;2023-06-14T06:07:15;7.82;;;4.95;;
37855;SDS011;23694;43.274;26.924;2023-06-14T06:09:42;6.93;;;4.90;;
37855;SDS011;23694;43.274;26.924;2023-06-14T06:12:08;9.27;;;4.32;;
37855;SDS011;23694;43.274;26.924;2023-06-14T06:14:34;8.43;;;4.47;;
37855;SDS011;23694;43.274;26.924;2023-06-14T06:17:00;9.27;;;4.32;;
37855;SDS011;23694;43.274;26.924;2023-06-14T06:19:26;7.50;;;4.22;;
37855;SDS011;23694;43.274;26.924;2023-06-14T06:21:52;7.13;;;5.10;;
37855;SDS011;23694;43.274;26.924;2023-06-14T06:24:18;8.40;;;4.55;;
37855;SDS011;23694;43.274;26.924;2023-06-14T06:27:04;6.68;;;4.25;;
37855;SDS011;23694;43.274;26.924;2023-06-14T06:29:36;10.70;;;4.35;;
37855;SDS011;23694;43.274;26.924;2023-06-14T06:32:07;5.05;;;4.22;;
37855;SDS011;23694;43.274;26.924;2023-06-14T06:34:33;7.18;;;4.18;;
37855;SDS011;23694;43.274;26.924;2023-06-14T06:37:01;4.13;;;3.72;;
37855;SDS011;23694;43.274;26.924;2023-06-14T06:39:27;6.78;;;4.25;;
37855;SDS011;23694;43.274;26.924;2023-06-14T06:41:53;7.22;;;3.90;;
37855;SDS011;23694;43.274;26.924;2023-06-14T06:44:19;5.28;;;3.40;;
37855;SDS011;23694;43.274;26.924;2023-06-14T06:46:46;6.70;;;3.35;;
37855;SDS011;23694;43.274;26.924;2023-06-14T06:49:18;5.20;;;2.72;;
37855;SDS011;23694;43.274;26.924;2023-06-14T06:52:02;4.68;;;2.78;;
37855;SDS011;23694;43.274;26.924;2023-06-14T06:54:30;4.25;;;2.85;;
37855;SDS011;23694;43.274;26.924;2023-06-14T06:56:56;3.28;;;2.80;;
37855;SDS011;23694;43.274;26.924;2023-06-14T06:59:30;5.00;;;3.03;;
37855;SDS011;23694;43.274;26.924;2023-06-14T07:01:57;3.88;;;2.70;;
37855;SDS011;23694;43.274;26.924;2023-06-14T07:04:23;5.38;;;2.70;;
37855;SDS011;23694;43.274;26.924;2023-06-14T07:06:50;7.30;;;2.90;;
37855;SDS011;23694;43.274;26.924;2023-06-14T07:09:16;5.68;;;3.13;;
37855;SDS011;23694;43.274;26.924;2023-06-14T07:11:53;4.95;;;2.90;;
37855;SDS011;23694;43.274;26.924;2023-06-14T07:14:20;4.78;;;2.80;;
37855;SDS011;23694;43.274;26.924;2023-06-14T07:16:48;6.68;;;3.00;;
37855;SDS011;23694;43.274;26.924;2023-06-14T07:19:14;4.10;;;3.10;;
37855;SDS011;23694;43.274;26.924;2023-06-14T07:21:41;6.68;;;2.72;;
37855;SDS011;23694;43.274;26.924;2023-06-14T07:24:07;3.83;;;2.92;;
37855;SDS011;23694;43.274;26.924;2023-06-14T07:26:33;3.65;;;2.80;;
37855;SDS011;23694;43.274;26.924;2023-06-14T07:29:00;3.60;;;2.70;;
37855;SDS011;23694;43.274;26.924;2023-06-14T07:31:27;3.90;;;3.00;;
37855;SDS011;23694;43.274;26.924;2023-06-14T07:33:53;4.47;;;3.10;;
37855;SDS011;23694;43.274;26.924;2023-06-14T07:36:19;5.90;;;2.78;;
37855;SDS011;23694;43.274;26.924;2023-06-14T07:38:45;4.50;;;2.85;;
37855;SDS011;23694;43.274;26.924;2023-06-14T07:41:12;5.68;;;3.28;;
37855;SDS011;23694;43.274;26.924;2023-06-14T07:43:38;5.10;;;2.72;;
37855;SDS011;23694;43.274;26.924;2023-06-14T07:46:04;5.68;;;3.72;;
37855;SDS011;23694;43.274;26.924;2023-06-14T07:48:31;7.00;;;3.40;;
37855;SDS011;23694;43.274;26.924;2023-06-14T07:50:57;6.45;;;3.20;;
37855;SDS011;23694;43.274;26.924;2023-06-14T07:53:24;4.78;;;3.03;;
37855;SDS011;23694;43.274;26.924;2023-06-14T07:55:51;6.28;;;3.33;;
37855;SDS011;23694;43.274;26.924;2023-06-14T07:58:17;5.63;;;2.80;;
37855;SDS011;23694;43.274;26.924;2023-06-14T08:00:43;9.93;;;3.65;;
37855;SDS011;23694;43.274;26.924;2023-06-14T08:03:09;7.28;;;3.10;;
37855;SDS011;23694;43.274;26.924;2023-06-14T08:05:35;4.15;;;2.80;;
37855;SDS011;23694;43.274;26.924;2023-06-14T08:08:01;5.05;;;3.42;;
37855;SDS011;23694;43.274;26.924;2023-06-14T08:10:28;3.40;;;2.83;;
37855;SDS011;23694;43.274;26.924;2023-06-14T08:12:54;3.70;;;3.05;;
37855;SDS011;23694;43.274;26.924;2023-06-14T08:15:20;7.90;;;3.45;;
37855;SDS011;23694;43.274;26.924;2023-06-14T08:17:46;8.20;;;3.67;;
37855;SDS011;23694;43.274;26.924;2023-06-14T08:20:12;9.38;;;3.75;;
37855;SDS011;23694;43.274;26.924;2023-06-14T08:22:42;7.78;;;3.35;;
37855;SDS011;23694;43.274;26.924;2023-06-14T08:25:09;7.47;;;3.70;;
37855;SDS011;23694;43.274;26.924;2023-06-14T08:27:37;4.70;;;2.88;;
37855;SDS011;23694;43.274;26.924;2023-06-14T08:30:03;6.88;;;4.13;;
37855;SDS011;23694;43.274;26.924;2023-06-14T08:32:30;7.53;;;4.20;;
37855;SDS011;23694;43.274;26.924;2023-06-14T08:34:56;5.50;;;3.28;;
37855;SDS011;23694;43.274;26.924;2023-06-14T08:37:22;3.85;;;3.38;;
37855;SDS011;23694;43.274;26.924;2023-06-14T08:39:48;6.35;;;3.20;;
37855;SDS011;23694;43.274;26.924;2023-06-14T08:42:14;5.57;;;3.50;;
37855;SDS011;23694;43.274;26.924;2023-06-14T08:44:41;6.70;;;3.40;;
37855;SDS011;23694;43.274;26.924;2023-06-14T08:47:07;5.68;;;3.70;;
37855;SDS011;23694;43.274;26.924;2023-06-14T08:49:36;6.93;;;4.43;;
37855;SDS011;23694;43.274;26.924;2023-06-14T08:52:04;5.75;;;3.80;;
37855;SDS011;23694;43.274;26.924;2023-06-14T08:54:33;9.68;;;3.92;;
37855;SDS011;23694;43.274;26.924;2023-06-14T08:57:02;4.60;;;3.33;;
37855;SDS011;23694;43.274;26.924;2023-06-14T08:59:30;6.85;;;3.85;;
37855;SDS011;23694;43.274;26.924;2023-06-14T09:01:59;6.13;;;3.67;;
37855;SDS011;23694;43.274;26.924;2023-06-14T09:04:25;5.10;;;3.60;;
37855;SDS011;23694;43.274;26.924;2023-06-14T09:06:57;6.65;;;3.53;;
37855;SDS011;23694;43.274;26.924;2023-06-14T09:09:24;4.57;;;3.30;;
37855;SDS011;23694;43.274;26.924;2023-06-14T09:11:51;6.32;;;3.50;;
37855;SDS011;23694;43.274;26.924;2023-06-14T09:14:18;5.85;;;3.35;;
37855;SDS011;23694;43.274;26.924;2023-06-14T09:16:44;3.88;;;3.28;;
37855;SDS011;23694;43.274;26.924;2023-06-14T09:19:20;5.80;;;3.22;;
37855;SDS011;23694;43.274;26.924;2023-06-14T09:21:48;3.92;;;3.08;;
37855;SDS011;23694;43.274;26.924;2023-06-14T09:24:14;4.65;;;2.90;;
37855;SDS011;23694;43.274;26.924;2023-06-14T09:26:40;3.47;;;3.17;;
37855;SDS011;23694;43.274;26.924;2023-06-14T09:29:06;4.25;;;3.22;;
37855;SDS011;23694;43.274;26.924;2023-06-14T09:31:32;5.70;;;2.85;;
37855;SDS011;23694;43.274;26.924;2023-06-14T09:34:02;4.75;;;3.10;;
37855;SDS011;23694;43.274;26.924;2023-06-14T09:36:30;3.55;;;2.83;;
37855;SDS011;23694;43.274;26.924;2023-06-14T09:38:58;11.18;;;3.55;;
37855;SDS011;23694;43.274;26.924;2023-06-14T09:41:33;4.55;;;2.70;;
37855;SDS011;23694;43.274;26.924;2023-06-14T09:44:00;4.65;;;3.20;;
37855;SDS011;23694;43.274;26.924;2023-06-14T09:46:28;5.47;;;3.00;;
37855;SDS011;23694;43.274;26.924;2023-06-14T09:48:57;6.55;;;3.20;;
37855;SDS011;23694;43.274;26.924;2023-06-14T09:51:23;4.13;;;3.08;;
37855;SDS011;23694;43.274;26.924;2023-06-14T09:53:50;7.15;;;3.30;;
37855;SDS011;23694;43.274;26.924;2023-06-14T09:56:27;3.65;;;2.80;;
37855;SDS011;23694;43.274;26.924;2023-06-14T09:58:57;3.45;;;2.85;;
37855;SDS011;23694;43.274;26.924;2023-06-14T10:01:25;5.43;;;2.95;;
37855;SDS011;23694;43.274;26.924;2023-06-14T10:03:55;6.37;;;3.10;;
37855;SDS011;23694;43.274;26.924;2023-06-14T10:06:29;5.97;;;3.30;;
37855;SDS011;23694;43.274;26.924;2023-06-14T10:08:56;6.88;;;2.92;;
37855;SDS011;23694;43.274;26.924;2023-06-14T10:11:25;3.25;;;2.95;;
37855;SDS011;23694;43.274;26.924;2023-06-14T10:13:52;3.58;;;2.83;;
37855;SDS011;23694;43.274;26.924;2023-06-14T10:16:22;3.75;;;3.15;;
37855;SDS011;23694;43.274;26.924;2023-06-14T10:24:38;5.05;;;2.95;;
37855;SDS011;23694;43.274;26.924;2023-06-14T10:27:08;3.83;;;2.88;;
37855;SDS011;23694;43.274;26.924;2023-06-14T10:30:21;6.07;;;3.20;;
37855;SDS011;23694;43.274;26.924;2023-06-14T10:32:33;5.82;;;3.00;;
37855;SDS011;23694;43.274;26.924;2023-06-14T10:35:00;7.57;;;3.55;;
37855;SDS011;23694;43.274;26.924;2023-06-14T10:37:29;7.85;;;3.45;;
37855;SDS011;23694;43.274;26.924;2023-06-14T10:39:56;3.20;;;2.90;;
37855;SDS011;23694;43.274;26.924;2023-06-14T10:42:23;5.05;;;2.92;;
37855;SDS011;23694;43.274;26.924;2023-06-14T10:44:57;4.90;;;2.83;;
37855;SDS011;23694;43.274;26.924;2023-06-14T10:47:33;4.03;;;2.92;;
37855;SDS011;23694;43.274;26.924;2023-06-14T10:52:32;4.18;;;2.70;;
37855;SDS011;23694;43.274;26.924;2023-06-14T10:55:05;4.33;;;3.13;;
37855;SDS011;23694;43.274;26.924;2023-06-14T10:57:38;5.00;;;2.90;;
37855;SDS011;23694;43.274;26.924;2023-06-14T11:00:06;3.35;;;2.78;;
37855;SDS011;23694;43.274;26.924;2023-06-14T11:05:51;4.25;;;3.00;;
37855;SDS011;23694;43.274;26.924;2023-06-14T11:11:07;6.43;;;3.55;;
37855;SDS011;23694;43.274;26.924;2023-06-14T11:13:38;3.72;;;3.08;;
37855;SDS011;23694;43.274;26.924;2023-06-14T11:16:15;4.78;;;2.80;;
37855;SDS011;23694;43.274;26.924;2023-06-14T11:18:42;3.58;;;3.22;;
37855;SDS011;23694;43.274;26.924;2023-06-14T11:21:11;5.05;;;2.83;;
37855;SDS011;23694;43.274;26.924;2023-06-14T11:23:40;5.03;;;3.15;;
37855;SDS011;23694;43.274;26.924;2023-06-14T11:26:06;5.07;;;3.17;;
37855;SDS011;23694;43.274;26.924;2023-06-14T11:28:36;4.45;;;3.50;;
37855;SDS011;23694;43.274;26.924;2023-06-14T11:31:03;3.90;;;3.20;;
37855;SDS011;23694;43.274;26.924;2023-06-14T11:33:30;4.07;;;2.88;;
37855;SDS011;23694;43.274;26.924;2023-06-14T11:35:56;6.95;;;3.70;;
37855;SDS011;23694;43.274;26.924;2023-06-14T11:38:22;6.15;;;3.22;;
37855;SDS011;23694;43.274;26.924;2023-06-14T11:40:49;4.18;;;2.95;;
37855;SDS011;23694;43.274;26.924;2023-06-14T11:43:15;2.90;;;2.70;;
37855;SDS011;23694;43.274;26.924;2023-06-14T11:45:42;4.18;;;2.63;;
37855;SDS011;23694;43.274;26.924;2023-06-14T11:48:08;3.30;;;2.85;;
37855;SDS011;23694;43.274;26.924;2023-06-14T11:50:37;6.57;;;2.80;;
37855;SDS011;23694;43.274;26.924;2023-06-14T11:53:04;5.03;;;2.65;;
37855;SDS011;23694;43.274;26.924;2023-06-14T11:55:39;4.75;;;3.28;;
37855;SDS011;23694;43.274;26.924;2023-06-14T11:58:06;6.18;;;3.30;;
37855;SDS011;23694;43.274;26.924;2023-06-14T12:00:35;6.82;;;3.55;;
37855;SDS011;23694;43.274;26.924;2023-06-14T12:03:02;6.43;;;3.50;;
37855;SDS011;23694;43.274;26.924;2023-06-14T12:05:29;4.43;;;3.30;;
37855;SDS011;23694;43.274;26.924;2023-06-14T12:07:58;5.28;;;3.70;;
37855;SDS011;23694;43.274;26.924;2023-06-14T12:10:25;4.05;;;3.63;;
37855;SDS011;23694;43.274;26.924;2023-06-14T12:12:56;4.18;;;3.63;;
37855;SDS011;23694;43.274;26.924;2023-06-14T12:15:24;5.03;;;3.13;;
37855;SDS011;23694;43.274;26.924;2023-06-14T12:17:50;4.30;;;3.17;;
37855;SDS011;23694;43.274;26.924;2023-06-14T12:20:18;5.90;;;3.40;;
37855;SDS011;23694;43.274;26.924;2023-06-14T12:22:53;4.60;;;3.15;;
37855;SDS011;23694;43.274;26.924;2023-06-14T12:25:30;4.75;;;3.20;;
37855;SDS011;23694;43.274;26.924;2023-06-14T12:28:05;7.70;;;3.25;;
37855;SDS011;23694;43.274;26.924;2023-06-14T12:30:33;3.67;;;3.08;;
37855;SDS011;23694;43.274;26.924;2023-06-14T12:33:00;7.45;;;3.22;;
37855;SDS011;23694;43.274;26.924;2023-06-14T12:35:30;5.47;;;2.97;;
37855;SDS011;23694;43.274;26.924;2023-06-14T12:37:56;5.57;;;3.03;;
37855;SDS011;23694;43.274;26.924;2023-06-14T12:40:22;3.88;;;3.45;;
37855;SDS011;23694;43.274;26.924;2023-06-14T12:42:49;4.10;;;2.78;;
37855;SDS011;23694;43.274;26.924;2023-06-14T12:45:15;4.85;;;3.30;;
37855;SDS011;23694;43.274;26.924;2023-06-14T12:47:42;6.18;;;3.10;;
37855;SDS011;23694;43.274;26.924;2023-06-14T12:50:08;4.20;;;3.00;;
37855;SDS011;23694;43.274;26.924;2023-06-14T12:52:35;3.53;;;3.20;;
37855;SDS011;23694;43.274;26.924;2023-06-14T12:55:04;6.00;;;3.28;;
37855;SDS011;23694;43.274;26.924;2023-06-14T12:57:31;4.93;;;3.00;;
37855;SDS011;23694;43.274;26.924;2023-06-14T12:59:57;4.93;;;2.65;;
37855;SDS011;23694;43.274;26.924;2023-06-14T13:02:25;4.63;;;3.33;;
37855;SDS011;23694;43.274;26.924;2023-06-14T13:04:51;5.45;;;3.38;;
37855;SDS011;23694;43.274;26.924;2023-06-14T13:07:17;4.30;;;3.17;;
37855;SDS011;23694;43.274;26.924;2023-06-14T13:09:43;7.38;;;3.15;;
37855;SDS011;23694;43.274;26.924;2023-06-14T13:12:10;5.88;;;3.15;;
37855;SDS011;23694;43.274;26.924;2023-06-14T13:14:39;4.35;;;3.03;;
37855;SDS011;23694;43.274;26.924;2023-06-14T13:17:09;4.88;;;3.20;;
37855;SDS011;23694;43.274;26.924;2023-06-14T13:19:36;6.55;;;3.28;;
37855;SDS011;23694;43.274;26.924;2023-06-14T13:22:02;7.68;;;3.45;;
37855;SDS011;23694;43.274;26.924;2023-06-14T13:24:28;6.28;;;3.10;;
37855;SDS011;23694;43.274;26.924;2023-06-14T13:26:55;3.78;;;3.17;;
37855;SDS011;23694;43.274;26.924;2023-06-14T13:29:23;5.40;;;2.95;;
37855;SDS011;23694;43.274;26.924;2023-06-14T13:31:50;4.15;;;2.60;;
37855;SDS011;23694;43.274;26.924;2023-06-14T13:34:16;8.27;;;3.13;;
37855;SDS011;23694;43.274;26.924;2023-06-14T13:36:42;4.70;;;3.40;;
37855;SDS011;23694;43.274;26.924;2023-06-14T13:39:08;6.28;;;3.00;;
37855;SDS011;23694;43.274;26.924;2023-06-14T13:41:34;5.03;;;3.22;;
37855;SDS011;23694;43.274;26.924;2023-06-14T13:44:01;5.15;;;2.95;;
37855;SDS011;23694;43.274;26.924;2023-06-14T13:46:29;6.25;;;2.85;;
37855;SDS011;23694;43.274;26.924;2023-06-14T13:48:56;3.92;;;3.00;;
37855;SDS011;23694;43.274;26.924;2023-06-14T13:51:23;3.38;;;3.08;;
37855;SDS011;23694;43.274;26.924;2023-06-14T13:53:49;12.68;;;3.55;;
37855;SDS011;23694;43.274;26.924;2023-06-14T13:56:16;7.78;;;2.90;;
37855;SDS011;23694;43.274;26.924;2023-06-14T13:58:43;5.88;;;4.05;;
37855;SDS011;23694;43.274;26.924;2023-06-14T14:01:09;4.38;;;2.83;;
37855;SDS011;23694;43.274;26.924;2023-06-14T14:03:36;5.55;;;3.17;;
37855;SDS011;23694;43.274;26.924;2023-06-14T14:06:05;4.53;;;3.33;;
37855;SDS011;23694;43.274;26.924;2023-06-14T14:08:32;5.35;;;3.00;;
37855;SDS011;23694;43.274;26.924;2023-06-14T14:10:58;6.25;;;2.97;;
37855;SDS011;23694;43.274;26.924;2023-06-14T14:13:25;7.18;;;3.22;;
37855;SDS011;23694;43.274;26.924;2023-06-14T14:15:51;5.70;;;3.20;;
37855;SDS011;23694;43.274;26.924;2023-06-14T14:18:17;4.68;;;2.75;;
37855;SDS011;23694;43.274;26.924;2023-06-14T14:20:44;3.20;;;2.90;;
37855;SDS011;23694;43.274;26.924;2023-06-14T14:23:10;5.55;;;3.05;;
37855;SDS011;23694;43.274;26.924;2023-06-14T14:25:36;8.95;;;3.20;;
37855;SDS011;23694;43.274;26.924;2023-06-14T14:28:02;4.30;;;2.92;;
37855;SDS011;23694;43.274;26.924;2023-06-14T14:30:28;5.10;;;3.40;;
37855;SDS011;23694;43.274;26.924;2023-06-14T14:32:54;4.28;;;2.88;;
37855;SDS011;23694;43.274;26.924;2023-06-14T14:35:21;3.47;;;2.72;;
37855;SDS011;23694;43.274;26.924;2023-06-14T14:37:49;3.40;;;3.08;;
37855;SDS011;23694;43.274;26.924;2023-06-14T14:40:15;6.32;;;3.42;;
37855;SDS011;23694;43.274;26.924;2023-06-14T14:42:41;5.32;;;3.53;;
37855;SDS011;23694;43.274;26.924;2023-06-14T14:45:07;3.45;;;3.03;;
37855;SDS011;23694;43.274;26.924;2023-06-14T14:47:33;5.97;;;3.53;;
37855;SDS011;23694;43.274;26.924;2023-06-14T14:50:00;4.47;;;3.20;;
37855;SDS011;23694;43.274;26.924;2023-06-14T14:52:26;7.93;;;3.45;;
37855;SDS011;23694;43.274;26.924;2023-06-14T14:54:52;7.50;;;3.67;;